Rock Stream, New York
Current Conditions -  °F | °C
As of 10:03 AM on Thursday 30 Oct 2014 (Local Time) from KPEO Reporting Station
Scattered Clouds Scattered Clouds  
Wind Chill: 39°   Ceiling: Unl
Heat Index: 45°   Visibility: 10mi
Dew Point: 35°   Wind: 12mph
Humidity: 68%   Direction: 310°NW
Pressure: 30.05"   Gusts: NA
Location:  42.47°N, 76.93°W
Report Text: KPEO 301403Z AUTO 31010KT 10SM SCT024 07/02 A3005 RMK AO2 T00720017
Loading
Personal Weather Stations






























Interactive Weather Map
Tropical Storm Tracking
New forecast layout! Learn more

10-Day Weather Forecast

Advertisements
Track Severe Weather on mobile